LiveATC.Net - Listen to live air traffic control over the Internet!


ICAO: KAOH  IATA: AOH   Airport: Lima Allen County Airport
City: Lima   State/Province: Ohio
Country: United States   Continent: North America
KAOH METAR Weather: KAOH 010553Z AUTO 27020G26KT 10SM CLR M04/M10 A3025 RMK AO2 PK WND 27029/0521 SLP257 T10441100 11011 21044 51014
KAOH ADS-B Flight Tracking (ADSBExchange)
KAOH Flight Activity (FlightAware)
KAOH Airport Info   (iFlightPlanner)
KAOH VFR Sectional Chart   (iFlightPlanner) 
KAOH IFR Low Altitude Chart   (iFlightPlanner) 
KAOH IFR High Altitude Chart   (iFlightPlanner) 

KAOH CTAF
Feed Status: UP   Listeners: 0
Listen in your browser - HTML5 player (in browser, HTML5)
Click here to listen with your own player (launches your MP3 player)
Archive Access: KAOH CTAF
FacilityFrequency
Lima CTAF122.700

NOTICE

Unauthorized use prohibited. See LiveATC.net Terms of Service


Airport/ARTCC Code
Frequency Search
(e.g., 124.400, 128.75)
Site-wide search
 


Browse Feeds
Top 50 Feeds
HF Oceanic Feeds
Coverage Map
Bad Weather Areas

LiveATC FAQ
Offer LiveATC feed
Contact LiveATC.net
Press Inquiries

LiveATC on iPhone
LiveATC on Android

LiveATC Mobile
(Mobile browser)

ATC Audio Archives
Interesting Recordings

LiveATC Forums


Home Page
About LiveATC.net


Terms of Use
Privacy Policy

AIRMETs/SIGMETs

FAA Airport Status
NAS Status
Arrival Demand


Server Software By:
Icecast.org
Liquidsoap